Historyczne dane pomiarowe

Dodano dane terminowe – wersja testowa.

Dane z okresu 1951-2019

Wersja bazy: 1.34 [2019-03-16, lista zmian], aktualizacja planowana na 2019-04-15

Dane meteo z obszaru Polski uzyskane na podstawie danych udostępnionych przez Instytut Meteorologii i Gospodarki Wodnej – Państwowy Instytut Badawczy.

 

Wybierz Datę:    

       

TemperaturaWilgotnośćZachmurzenieWiatrCiśnienieWidzialnośćZjawiska
 Data    tng td wb rh cc ccl cl cm ch dir g1 g2 mslp ppp      
1994-08-08 00:00:00 18.7--- 16.8 17.589wxwxwx0wx--1017.6 977.5 0.0---wx
1994-08-08 01:00:00 18.5--- 16.9 17.591wxwxwx2wx--1017.6 977.5----wx
1994-08-08 02:00:00 17.8--- 16.5 17.092wxwxwx1wx--1017.4 977.2----wx
1994-08-08 03:00:00 17.8--- 17.0 17.395wxwxwx1wx--1017.5 977.3----wx
1994-08-08 04:00:00 17.4--- 16.8 17.096wxwxwx0wx--1017.5 977.3----wx
1994-08-08 05:00:00 17.2--- 16.9 17.098wxwxwx0wx--1017.9 977.6----wx
1994-08-08 06:00:00 17.5--- 17.0 17.297wxwxwx0wx--1017.8 977.6 0.1---wxw1
1994-08-08 07:00:00 17.8--- 17.0 17.395wxwxwx0wx--1018.0 977.8----wx
1994-08-08 08:00:00 18.8--- 16.0 17.084wxwxwx0wx--1018.0 977.9----wx
1994-08-08 09:00:00 19.9--- 15.8 17.377wxwxwx0wx--1017.9 978.0----wx
1994-08-08 10:00:00 20.6--- 15.9 17.674wxwxwx0wx--1017.8 978.0----wx
1994-08-08 11:00:00 21.4--- 15.9 17.971wxwxwx0wx--1017.2 977.5----wx
1994-08-08 12:00:00 22.0--- 15.4 17.866wxwxwx0wx--1016.8 977.2 0.0---wx
1994-08-08 13:00:00 22.8--- 15.9 18.465wxwxwx1wx--1016.3 976.8----wx
1994-08-08 14:00:00 23.8--- 16.2 18.963wxwxwx2wx--1015.8 976.5----wx
1994-08-08 15:00:00 23.5--- 16.2 18.864wxwxwx1wx--1015.2 975.9----wx
1994-08-08 16:00:00 23.4--- 15.6 18.462wxwxwx0wx--1014.5 975.2----wx
1994-08-08 17:00:00 23.1--- 15.6 18.363wxwxwx1wx--1014.6 975.2----wx
1994-08-08 18:00:00 22.2--- 15.3 17.865wxwxwx0wx--1014.6 975.1 0.0---wx
1994-08-08 19:00:00 20.8--- 15.9 17.774wxwxwx2wx--1014.9 975.2----wx
1994-08-08 20:00:00 20.8--- 16.4 18.076wxwxwx2wx--1015.1 975.4----wxw1
1994-08-08 21:00:00 19.2--- 17.2 17.988wxwxwx1wx--1014.7 974.8----wxw1
1994-08-08 22:00:00 18.5--- 16.8 17.490wxwxwx0wx--1015.1 975.1----wx
1994-08-08 23:00:00 18.0--- 16.4 17.091wxwxwx0wx--1014.9 974.9----wx

 

Źródłem pochodzenia danych jest Instytut Meteorologii i Gospodarki Wodnej – Państwowy Instytut Badawczy. Dane Instytutu Meteorologii i Gospodarki Wodnej – Państwowego Instytutu Badawczego zostały przetworzone.

Dane źródłowe można odnaleźć na stronie https://dane.imgw.pl